createdAt,value
2022-10-30T19:22:41.569Z,71.21
2022-10-30T19:27:44.873Z,70.95
2022-10-30T19:32:47.720Z,70.70
2022-10-30T19:37:53.168Z,71.31
2022-10-30T19:42:56.920Z,71.40
2022-10-30T19:48:20.854Z,70.96
2022-10-30T19:53:57.031Z,71.52
2022-10-30T20:10:16.386Z,71.17
2022-10-30T20:15:21.672Z,71.19
2022-10-30T20:20:32.804Z,71.13
2022-10-30T20:25:35.383Z,70.90
2022-10-30T20:30:38.043Z,71.62
2022-10-30T20:35:40.203Z,72.09
2022-10-30T20:40:42.251Z,71.22
2022-10-30T20:46:36.062Z,71.46
2022-10-30T20:51:37.947Z,72.11
2022-10-30T20:56:40.185Z,71.98
2022-10-30T21:01:42.233Z,72.64
2022-10-30T21:06:44.210Z,72.17
2022-10-30T21:11:46.442Z,72.35
2022-10-30T21:16:52.875Z,72.36
2022-10-30T21:21:55.098Z,72.41
2022-10-30T21:27:00.041Z,72.39
2022-10-30T21:32:02.349Z,72.63
2022-10-30T21:37:05.276Z,72.73
2022-10-30T21:42:09.497Z,72.62
2022-10-30T21:47:14.689Z,72.25
2022-10-30T21:52:17.050Z,72.95
2022-10-30T21:57:19.077Z,73.28
2022-10-30T22:02:22.088Z,72.66
2022-10-30T22:07:24.391Z,72.95
2022-10-30T22:12:26.356Z,72.84
2022-10-30T22:17:30.777Z,73.57
2022-10-30T22:22:35.985Z,73.18
2022-10-30T22:27:38.037Z,73.35
2022-10-30T22:32:40.323Z,73.02
2022-10-30T22:37:42.522Z,73.30
2022-10-30T22:42:44.513Z,73.04
2022-10-30T22:47:46.664Z,73.64
2022-10-30T22:52:48.448Z,73.38
2022-10-30T22:57:54.788Z,73.27
2022-10-30T23:02:56.976Z,73.57
2022-10-30T23:07:59.269Z,73.76
2022-10-30T23:13:01.563Z,73.84
2022-10-30T23:18:03.773Z,73.47
2022-10-30T23:23:05.782Z,73.90
2022-10-30T23:28:09.087Z,73.80
2022-10-30T23:33:11.360Z,73.92
2022-10-30T23:38:13.151Z,73.84
2022-10-30T23:43:16.377Z,74.20
2022-10-30T23:48:18.326Z,73.94
2022-10-30T23:53:20.380Z,74.18
2022-10-30T23:58:22.420Z,74.28
